createdAt,value
2018-09-12T00:55:26.768Z,0.00
2018-09-12T03:36:10.069Z,0.00
2018-09-12T03:37:09.636Z,0.00
2018-09-12T03:39:33.909Z,0.00
2018-09-12T03:41:19.058Z,0.00
2018-09-12T03:42:16.005Z,0.00
2018-09-12T03:43:15.778Z,0.00
2018-09-12T03:44:15.749Z,0.00
2018-09-12T03:45:15.722Z,0.00
2018-09-12T03:46:15.897Z,0.00
2018-09-12T03:47:15.671Z,0.00
2018-09-12T03:48:15.647Z,0.00
2018-09-12T03:49:15.624Z,0.00
2018-09-12T03:50:15.590Z,0.00
2018-09-12T03:51:15.568Z,0.00
2018-09-12T03:52:15.550Z,0.00
2018-09-12T03:53:15.511Z,0.00
2018-09-12T03:54:15.484Z,0.00
2018-09-12T03:55:15.465Z,0.00
2018-09-12T03:56:15.432Z,0.00
2018-09-12T03:57:15.407Z,0.00
2018-09-12T03:58:15.380Z,0.00
2018-09-12T03:59:15.353Z,0.00
2018-09-12T04:00:15.327Z,0.00
2018-09-12T04:01:15.302Z,0.00
2018-09-12T04:02:15.274Z,0.00
2018-09-12T04:03:15.248Z,0.00
2018-09-12T04:04:15.227Z,0.00
2018-09-12T04:05:15.386Z,0.00
2018-09-12T04:06:15.170Z,0.00
2018-09-12T04:07:15.149Z,0.00
2018-09-12T04:08:15.120Z,0.00
2018-09-12T04:09:15.095Z,0.00
2018-09-12T04:10:15.064Z,0.00
2018-09-12T04:11:15.441Z,0.00
2018-09-12T04:12:15.014Z,0.00
2018-09-12T04:13:14.987Z,0.00
2018-09-12T04:14:14.964Z,0.00
2018-09-12T04:15:14.934Z,0.00
2018-09-12T04:16:14.908Z,4.00
2018-09-12T04:17:14.882Z,4.00
2018-09-12T04:18:14.858Z,4.00
2018-09-12T04:19:14.829Z,4.00
2018-09-12T04:20:14.803Z,4.00
2018-09-12T04:21:14.777Z,4.00
2018-09-12T04:22:14.750Z,8.00
2018-09-12T04:23:14.734Z,4.00
2018-09-12T04:24:14.760Z,8.00
2018-09-12T04:25:14.672Z,4.00
2018-09-12T04:26:14.650Z,8.00
2018-09-12T04:27:14.619Z,8.00
2018-09-12T04:28:14.593Z,12.00
2018-09-12T04:29:14.567Z,16.00
2018-09-12T04:30:14.540Z,20.00
2018-09-12T04:31:14.514Z,24.00
2018-09-12T04:32:14.490Z,28.00
2018-09-12T04:33:14.477Z,28.00
2018-09-12T04:34:14.435Z,32.00
2018-09-12T04:35:14.425Z,44.00
2018-09-12T04:36:14.382Z,48.00
2018-09-12T04:37:14.357Z,52.00
2018-09-12T04:38:14.330Z,60.00
2018-09-12T04:39:14.304Z,64.00
2018-09-12T04:40:14.279Z,76.00
2018-09-12T04:41:14.256Z,88.00
2018-09-12T04:42:14.225Z,96.00
2018-09-12T04:43:14.199Z,124.00
2018-09-12T04:44:14.176Z,144.00
2018-09-12T04:45:14.147Z,152.00
2018-09-12T04:46:14.118Z,148.00
2018-09-12T04:47:14.093Z,172.00
2018-09-12T04:48:14.071Z,192.00
2018-09-12T04:49:14.041Z,184.00
2018-09-12T04:50:14.018Z,180.00
2018-09-12T04:51:13.988Z,184.00
2018-09-12T04:52:13.962Z,196.00
2018-09-12T04:53:13.936Z,236.00
2018-09-12T04:54:13.909Z,280.00
2018-09-12T04:55:13.886Z,292.00
2018-09-12T04:56:13.877Z,256.00
2018-09-12T04:57:13.830Z,224.00
2018-09-12T04:58:13.807Z,216.00
2018-09-12T04:59:13.777Z,216.00
2018-09-12T05:00:13.751Z,224.00
2018-09-12T05:01:13.725Z,228.00
2018-09-12T05:02:13.732Z,232.00
2018-09-12T05:03:13.873Z,236.00
2018-09-12T05:04:13.649Z,256.00
2018-09-12T05:05:13.619Z,292.00
2018-09-12T05:06:13.593Z,340.00
2018-09-12T05:07:13.567Z,372.00
2018-09-12T05:08:13.546Z,416.00
2018-09-12T05:09:13.513Z,492.00
2018-09-12T05:10:13.504Z,564.00
2018-09-12T05:11:13.459Z,552.00
2018-09-12T05:12:13.433Z,524.00
2018-09-12T05:13:13.407Z,540.00
2018-09-12T05:14:13.380Z,564.00
2018-09-12T05:15:13.355Z,580.00
2018-09-12T05:16:13.545Z,712.00
2018-09-12T05:17:13.509Z,924.00
2018-09-12T05:18:13.273Z,1040.00
2018-09-12T05:19:13.247Z,1024.00
2018-09-12T05:20:13.230Z,1052.00
2018-09-12T05:21:13.194Z,1128.00
2018-09-12T05:22:13.167Z,1196.00
2018-09-12T05:23:13.145Z,1336.00
2018-09-12T05:24:13.115Z,1728.00
2018-09-12T05:25:13.089Z,2216.00
2018-09-12T05:26:13.069Z,2564.00
2018-09-12T05:27:13.237Z,2740.00
2018-09-12T05:28:13.008Z,2756.00
2018-09-12T05:29:12.982Z,2892.00
2018-09-12T05:30:12.956Z,3076.00
2018-09-12T05:31:12.929Z,3028.00
2018-09-12T05:32:12.902Z,2520.00
2018-09-12T05:33:12.878Z,2500.00
2018-09-12T05:34:12.848Z,3036.00
2018-09-12T05:35:12.824Z,3468.00
2018-09-12T05:36:12.842Z,3620.00
2018-09-12T05:37:12.770Z,3892.00
2018-09-12T05:38:12.743Z,3956.00
2018-09-12T05:39:12.716Z,3612.00
2018-09-12T05:40:12.691Z,3480.00
2018-09-12T05:41:12.663Z,3000.00
2018-09-12T05:42:12.637Z,2572.00
2018-09-12T05:43:13.217Z,2456.00
2018-09-12T05:44:12.593Z,2788.00
2018-09-12T05:45:12.558Z,2820.00
2018-09-12T05:46:12.530Z,2584.00
2018-09-12T05:47:12.507Z,2192.00
2018-09-12T05:48:12.477Z,2128.00
2018-09-12T05:49:12.452Z,2144.00
2018-09-12T05:50:12.512Z,2104.00
2018-09-12T05:51:12.399Z,2240.00
2018-09-12T05:52:12.374Z,2364.00
2018-09-12T05:53:12.346Z,2724.00
2018-09-12T05:54:12.320Z,2288.00
2018-09-12T05:55:12.293Z,2192.00
2018-09-12T05:56:12.270Z,2568.00
2018-09-12T05:57:12.243Z,2600.00
2018-09-12T05:58:12.214Z,2708.00
2018-09-12T05:59:12.187Z,2700.00
2018-09-12T06:00:12.167Z,2652.00
2018-09-12T06:01:12.135Z,2332.00
2018-09-12T06:02:12.112Z,2340.00
2018-09-12T06:03:12.089Z,2552.00
2018-09-12T06:04:12.055Z,2544.00
2018-09-12T06:05:12.031Z,2676.00
2018-09-12T06:06:12.003Z,2904.00
2018-09-12T06:07:12.163Z,3116.00
2018-09-12T06:08:11.951Z,3536.00
2018-09-12T06:09:11.924Z,3720.00
2018-09-12T06:10:11.897Z,3168.00
2018-09-12T06:11:11.872Z,2896.00
2018-09-12T06:12:11.846Z,3088.00
2018-09-12T06:13:11.820Z,3388.00
2018-09-12T06:14:11.861Z,3328.00
2018-09-12T06:15:11.775Z,3100.00
2018-09-12T06:16:11.743Z,2624.00
2018-09-12T06:17:11.715Z,2880.00
2018-09-12T06:18:11.689Z,3280.00
2018-09-12T06:19:11.662Z,2920.00
2018-09-12T06:20:11.634Z,2696.00
2018-09-12T06:21:11.612Z,3120.00
2018-09-12T06:22:11.584Z,3352.00
2018-09-12T06:23:11.558Z,3084.00
2018-09-12T06:24:11.532Z,3200.00
2018-09-12T06:25:11.504Z,3272.00
2018-09-12T06:26:11.477Z,3268.00
2018-09-12T06:27:11.452Z,3692.00
2018-09-12T06:28:11.426Z,4148.00
2018-09-12T06:29:11.401Z,4900.00
2018-09-12T06:30:11.374Z,4924.00
2018-09-12T06:31:11.347Z,4804.00
2018-09-12T06:32:11.321Z,5120.00
2018-09-12T06:33:11.298Z,5056.00
2018-09-12T06:34:11.269Z,5236.00
2018-09-12T06:35:11.244Z,5640.00
2018-09-12T06:36:11.217Z,6116.00
2018-09-12T06:37:11.191Z,6280.00
2018-09-12T06:38:11.214Z,5700.00
2018-09-12T06:39:11.141Z,4464.00
2018-09-12T06:40:11.122Z,3728.00
2018-09-12T06:41:11.091Z,3872.00
2018-09-12T06:42:11.064Z,4264.00
2018-09-12T06:43:11.034Z,4676.00
2018-09-12T06:44:11.014Z,5492.00
2018-09-12T06:45:10.985Z,6592.00
2018-09-12T06:46:10.954Z,8084.00
2018-09-12T06:47:10.934Z,9200.00
2018-09-12T06:48:10.903Z,8824.00
2018-09-12T06:49:10.877Z,7732.00
2018-09-12T06:50:10.849Z,7564.00
2018-09-12T06:51:10.823Z,7540.00
2018-09-12T06:52:10.799Z,7108.00
2018-09-12T06:53:10.772Z,7092.00
2018-09-12T06:54:10.744Z,6576.00
2018-09-12T06:55:10.720Z,7192.00
2018-09-12T06:56:10.692Z,7984.00
2018-09-12T06:57:10.666Z,8464.00
2018-09-12T06:58:10.641Z,9820.00
2018-09-12T06:59:10.614Z,11580.00
2018-09-12T07:00:10.588Z,11728.00
2018-09-12T07:01:10.628Z,11052.00
2018-09-12T07:02:10.536Z,11220.00
2018-09-12T07:03:10.508Z,12008.00
2018-09-12T07:04:10.485Z,10932.00
2018-09-12T07:05:10.457Z,8556.00
2018-09-12T07:06:10.438Z,10348.00
2018-09-12T07:07:10.402Z,11644.00
2018-09-12T07:08:10.379Z,10272.00
2018-09-12T07:09:10.352Z,9716.00
2018-09-12T07:10:10.326Z,10632.00
2018-09-12T07:11:10.302Z,10880.00
2018-09-12T07:12:10.274Z,14184.00
2018-09-12T07:13:10.248Z,13556.00
2018-09-12T07:14:10.308Z,11088.00
2018-09-12T07:15:10.197Z,10868.00
2018-09-12T07:16:10.170Z,10120.00
2018-09-12T07:17:10.144Z,11380.00
2018-09-12T07:18:10.117Z,9988.00
2018-09-12T07:19:10.091Z,9380.00
2018-09-12T07:20:10.067Z,9772.00
2018-09-12T07:21:10.041Z,9120.00
2018-09-12T07:22:10.016Z,8880.00
2018-09-12T07:23:09.991Z,8120.00
2018-09-12T07:24:09.962Z,9500.00
2018-09-12T07:25:09.939Z,9680.00
2018-09-12T07:26:09.911Z,9140.00
2018-09-12T07:27:09.884Z,9752.00
2018-09-12T07:28:09.858Z,9316.00
2018-09-12T07:29:09.832Z,10732.00
2018-09-12T07:30:09.815Z,11608.00
2018-09-12T07:31:09.780Z,8988.00
2018-09-12T07:32:09.756Z,7172.00
2018-09-12T07:33:09.728Z,6824.00
2018-09-12T07:34:09.702Z,6996.00
2018-09-12T07:35:09.677Z,6684.00
2018-09-12T07:36:09.650Z,6756.00
2018-09-12T07:37:09.626Z,7044.00
2018-09-12T07:38:09.600Z,7500.00
2018-09-12T07:39:09.578Z,7900.00
2018-09-12T07:40:09.547Z,8056.00
2018-09-12T07:41:09.521Z,8068.00
2018-09-12T07:42:09.498Z,7940.00
2018-09-12T07:43:09.469Z,8552.00
2018-09-12T07:44:09.443Z,9376.00
2018-09-12T07:45:09.417Z,8840.00
2018-09-12T07:46:09.395Z,8256.00
2018-09-12T07:47:09.368Z,8296.00
2018-09-12T07:48:09.339Z,8048.00
2018-09-12T07:49:09.428Z,8152.00
2018-09-12T07:50:09.287Z,8404.00
2018-09-12T07:51:09.261Z,8768.00
2018-09-12T07:52:09.235Z,10036.00
2018-09-12T07:53:09.210Z,10620.00
2018-09-12T07:54:09.194Z,10620.00
2018-09-12T07:55:09.179Z,11660.00
2018-09-12T07:56:09.520Z,12876.00
2018-09-12T07:57:09.105Z,13256.00
2018-09-12T07:58:09.083Z,14120.00
2018-09-12T07:59:09.084Z,15352.00
2018-09-12T08:00:09.125Z,15316.00
2018-09-12T08:01:09.030Z,15280.00
2018-09-12T08:02:08.975Z,15348.00
2018-09-12T08:03:08.948Z,15884.00
2018-09-12T08:04:08.925Z,18848.00
2018-09-12T08:05:08.938Z,20000.00
2018-09-12T08:06:08.871Z,16912.00
2018-09-12T08:07:08.863Z,14508.00
2018-09-12T08:08:08.863Z,13908.00
2018-09-12T08:09:08.808Z,13404.00
2018-09-12T08:10:08.799Z,13632.00
2018-09-12T08:11:08.741Z,13580.00
2018-09-12T08:12:08.777Z,13296.00
2018-09-12T08:13:08.691Z,13788.00
2018-09-12T08:14:08.665Z,14144.00
2018-09-12T08:15:08.640Z,15764.00
2018-09-12T08:16:08.613Z,18272.00
2018-09-12T08:17:08.588Z,18144.00
2018-09-12T08:18:08.564Z,16344.00
2018-09-12T08:19:08.543Z,17164.00
2018-09-12T08:20:08.514Z,16948.00
2018-09-12T08:21:08.487Z,16508.00
2018-09-12T08:22:08.461Z,19616.00
2018-09-12T08:23:08.434Z,23648.00
2018-09-12T08:24:08.410Z,25696.00
2018-09-12T08:25:08.391Z,20992.00
2018-09-12T08:26:08.369Z,20544.00
2018-09-12T08:27:08.331Z,23232.00
2018-09-12T08:28:08.306Z,27360.00
2018-09-12T08:29:08.281Z,27616.00
2018-09-12T08:30:08.255Z,33792.00
2018-09-12T08:31:08.230Z,31872.00
2018-09-12T08:32:08.414Z,24416.00
2018-09-12T08:33:08.181Z,22240.00
2018-09-12T08:34:08.154Z,23264.00
2018-09-12T08:35:08.129Z,23872.00
2018-09-12T08:36:08.113Z,22080.00
2018-09-12T08:37:08.084Z,22304.00
2018-09-12T08:38:08.056Z,25248.00
2018-09-12T08:39:08.032Z,27776.00
2018-09-12T08:40:08.007Z,24352.00
2018-09-12T08:41:07.981Z,23008.00
2018-09-12T08:42:08.008Z,22208.00
2018-09-12T08:43:07.931Z,19936.00
2018-09-12T08:44:07.910Z,18848.00
2018-09-12T08:45:07.883Z,18784.00
2018-09-12T08:46:07.856Z,19584.00
2018-09-12T08:47:07.832Z,20256.00
2018-09-12T08:48:07.807Z,24512.00
2018-09-12T08:49:07.787Z,32544.00
2018-09-12T08:50:07.765Z,36512.00
2018-09-12T08:51:07.734Z,36576.00
2018-09-12T08:52:07.709Z,38240.00
2018-09-12T08:53:07.685Z,37984.00
2018-09-12T08:54:07.664Z,31872.00
2018-09-12T08:55:07.636Z,28032.00
2018-09-12T08:56:07.612Z,26304.00
2018-09-12T08:57:07.608Z,25600.00
2018-09-12T08:58:07.562Z,27776.00
2018-09-12T08:59:07.546Z,27072.00
2018-09-12T09:00:07.518Z,25216.00
2018-09-12T09:01:07.491Z,23648.00
2018-09-12T09:02:07.469Z,24704.00
2018-09-12T09:03:07.446Z,29056.00
2018-09-12T09:04:07.449Z,31232.00
2018-09-12T09:05:07.394Z,31456.00
2018-09-12T09:06:07.368Z,34496.00
2018-09-12T09:07:07.345Z,36224.00
2018-09-12T09:08:07.362Z,39424.00
2018-09-12T09:09:07.298Z,47648.00
2018-09-12T09:10:07.274Z,38752.00
2018-09-12T09:11:07.254Z,33248.00
2018-09-12T09:12:07.435Z,33600.00
2018-09-12T09:13:07.202Z,32672.00
2018-09-12T09:14:07.179Z,30784.00
2018-09-12T09:15:07.158Z,26560.00
2018-09-12T09:16:07.131Z,29664.00
2018-09-12T09:17:07.115Z,41056.00
2018-09-12T09:18:49.450Z,36704.00
2018-09-12T09:19:49.213Z,26592.00
2018-09-12T09:20:49.187Z,20448.00
2018-09-12T09:21:49.169Z,21408.00
2018-09-12T09:22:49.142Z,22528.00
2018-09-12T09:23:49.124Z,24672.00
2018-09-12T09:24:49.106Z,27680.00
2018-09-12T09:25:49.073Z,23776.00
2018-09-12T09:26:49.048Z,22368.00
2018-09-12T09:27:49.024Z,20480.00
2018-09-12T09:28:49.000Z,19232.00
2018-09-12T09:29:48.980Z,20416.00
2018-09-12T09:30:48.958Z,21024.00
2018-09-12T09:31:48.929Z,20128.00
2018-09-12T09:39:26.292Z,15196.00
2018-09-12T09:40:26.073Z,13908.00
2018-09-12T09:41:26.244Z,18912.00
2018-09-12T09:42:26.018Z,18880.00
2018-09-12T09:43:25.993Z,19264.00
2018-09-12T09:44:25.968Z,25344.00
2018-09-12T09:45:25.990Z,28832.00
2018-09-12T09:46:25.920Z,28128.00
2018-09-12T09:47:25.895Z,24736.00
2018-09-12T09:48:25.993Z,24768.00
2018-09-12T09:49:25.846Z,25312.00
2018-09-12T09:50:25.824Z,24960.00
2018-09-12T09:51:25.802Z,24960.00
2018-09-12T09:52:25.773Z,25376.00
2018-09-12T09:53:25.749Z,28288.00
2018-09-12T09:54:25.730Z,30912.00
2018-09-12T09:55:25.701Z,30336.00
2018-09-12T09:56:25.681Z,30432.00
2018-09-12T09:57:25.652Z,28672.00
2018-09-12T09:58:25.634Z,30816.00
2018-09-12T09:59:25.606Z,27552.00
2018-09-12T10:00:25.657Z,25280.00
2018-09-12T10:01:25.563Z,21408.00
2018-09-12T10:02:25.545Z,18656.00
2018-09-12T10:03:25.510Z,16684.00
2018-09-12T10:04:25.487Z,14900.00
2018-09-12T10:05:25.463Z,12888.00
2018-09-12T10:06:25.444Z,10340.00
2018-09-12T10:07:25.414Z,10692.00
2018-09-12T10:08:25.389Z,11268.00
2018-09-12T10:09:25.367Z,11972.00
2018-09-12T10:10:25.341Z,9924.00
2018-09-12T10:11:25.320Z,7476.00
2018-09-12T10:12:25.294Z,6664.00
2018-09-12T10:13:25.272Z,6876.00
2018-09-12T10:14:25.249Z,6636.00
2018-09-12T10:15:25.222Z,7132.00
2018-09-12T10:16:25.197Z,8504.00
2018-09-12T10:17:25.173Z,8488.00
2018-09-12T10:18:25.159Z,9368.00
2018-09-12T10:19:25.128Z,11724.00
2018-09-12T10:20:25.101Z,14532.00
2018-09-12T10:21:25.076Z,15880.00
2018-09-12T10:22:25.057Z,16964.00
2018-09-12T10:23:25.031Z,19520.00
2018-09-12T10:24:25.140Z,20768.00
2018-09-12T10:25:24.981Z,19808.00
2018-09-12T10:26:24.953Z,20736.00
2018-09-12T10:27:24.929Z,21440.00
2018-09-12T10:28:24.909Z,19936.00
2018-09-12T10:29:24.879Z,19584.00
2018-09-12T10:30:24.857Z,19968.00
2018-09-12T10:31:24.833Z,19968.00
2018-09-12T10:32:24.806Z,18688.00
2018-09-12T10:33:24.781Z,18112.00
2018-09-12T10:34:24.758Z,17356.00
2018-09-12T10:35:24.738Z,16224.00
2018-09-12T10:36:24.709Z,12428.00
2018-09-12T10:37:24.685Z,10456.00
2018-09-12T10:38:24.662Z,10240.00
2018-09-12T10:39:24.636Z,9276.00
2018-09-12T10:40:24.620Z,8160.00
2018-09-12T10:41:24.591Z,8956.00
2018-09-12T10:42:24.567Z,9896.00
2018-09-12T10:43:24.546Z,9456.00
2018-09-12T10:44:24.513Z,8332.00
2018-09-12T10:45:24.496Z,9332.00
2018-09-12T10:46:24.467Z,11592.00
2018-09-12T10:47:24.441Z,10528.00
2018-09-12T10:48:24.415Z,10800.00
2018-09-12T10:49:24.390Z,11288.00
2018-09-12T10:50:24.366Z,11572.00
2018-09-12T10:51:24.341Z,10588.00
2018-09-12T10:52:24.315Z,8096.00
2018-09-12T10:53:24.290Z,6768.00
2018-09-12T10:54:24.271Z,6876.00
2018-09-12T10:55:24.241Z,7052.00
2018-09-12T10:56:24.214Z,9020.00
2018-09-12T10:57:24.189Z,10448.00
2018-09-12T10:58:24.164Z,10020.00
2018-09-12T10:59:24.141Z,12276.00
2018-09-12T11:00:24.117Z,10588.00
2018-09-12T11:01:24.088Z,10488.00
2018-09-12T11:02:24.065Z,10924.00
2018-09-12T11:03:24.739Z,10364.00
2018-09-12T11:04:24.059Z,12316.00
2018-09-12T11:05:23.986Z,17024.00
2018-09-12T11:06:23.961Z,23872.00
2018-09-12T11:07:23.937Z,29568.00
2018-09-12T11:08:23.911Z,32160.00
2018-09-12T11:09:23.884Z,33280.00
2018-09-12T11:10:23.859Z,33088.00
2018-09-12T11:11:23.834Z,32320.00
2018-09-12T11:12:23.809Z,31456.00
2018-09-12T11:13:23.784Z,30176.00
2018-09-12T11:14:23.759Z,29248.00
2018-09-12T11:15:23.819Z,29184.00
2018-09-12T11:16:23.708Z,29216.00
2018-09-12T11:17:23.684Z,28800.00
2018-09-12T11:18:23.659Z,28000.00
2018-09-12T11:19:23.637Z,27232.00
2018-09-12T11:20:23.614Z,25760.00
2018-09-12T11:21:23.584Z,23968.00
2018-09-12T11:22:23.566Z,23616.00
2018-09-12T11:23:23.545Z,25216.00
2018-09-12T11:24:23.510Z,26400.00
2018-09-12T11:25:23.487Z,26272.00
2018-09-12T11:26:23.463Z,28160.00
2018-09-12T11:27:23.438Z,30848.00
2018-09-12T11:28:23.413Z,31136.00
2018-09-12T11:29:23.394Z,31680.00
2018-09-12T11:30:23.364Z,32768.00
2018-09-12T11:31:23.339Z,33344.00
2018-09-12T11:32:23.314Z,33856.00
2018-09-12T11:33:23.294Z,32736.00
2018-09-12T11:34:23.332Z,34784.00
2018-09-12T11:35:23.445Z,42272.00
2018-09-12T11:42:36.283Z,29600.00
2018-09-12T11:43:36.058Z,32192.00
2018-09-12T11:47:35.964Z,30976.00
2018-09-12T11:48:35.940Z,27872.00
2018-09-12T11:49:35.919Z,26464.00
2018-09-12T11:50:35.906Z,28192.00
2018-09-12T11:51:35.871Z,30432.00
2018-09-12T11:52:35.848Z,28512.00
2018-09-12T11:53:35.827Z,25952.00
2018-09-12T11:54:35.802Z,25696.00
2018-09-12T11:55:35.837Z,27392.00
2018-09-12T11:56:35.754Z,29600.00
2018-09-12T11:57:35.732Z,29792.00
2018-09-12T11:58:35.709Z,29216.00
2018-09-12T11:59:35.687Z,29632.00
2018-09-12T12:00:35.662Z,30688.00
2018-09-12T12:01:35.656Z,31296.00
2018-09-12T12:02:35.616Z,31552.00
2018-09-12T12:03:35.590Z,29760.00
2018-09-12T12:04:35.577Z,27712.00
2018-09-12T12:05:35.546Z,29216.00
2018-09-12T12:06:35.528Z,31744.00
2018-09-12T12:07:35.501Z,30816.00
2018-09-12T12:08:35.477Z,27840.00
2018-09-12T12:09:35.457Z,25472.00
2018-09-12T12:10:35.431Z,22144.00
2018-09-12T12:11:35.406Z,20032.00
2018-09-12T12:12:35.384Z,20096.00
2018-09-12T12:13:35.369Z,20736.00
2018-09-12T12:14:35.351Z,19328.00
2018-09-12T12:15:35.319Z,16484.00
2018-09-12T12:16:35.337Z,17664.00
2018-09-12T12:17:35.269Z,25792.00
2018-09-12T12:18:35.246Z,30816.00
2018-09-12T12:19:35.220Z,25952.00
2018-09-12T12:20:35.200Z,21056.00
2018-09-12T12:21:35.176Z,19072.00
2018-09-12T12:22:35.159Z,18496.00
2018-09-12T12:23:35.126Z,20480.00
2018-09-12T12:24:35.103Z,22848.00
2018-09-12T12:25:35.086Z,25440.00
2018-09-12T12:26:35.057Z,27936.00
2018-09-12T12:27:35.034Z,24320.00
2018-09-12T12:28:35.008Z,21920.00
2018-09-12T12:29:34.989Z,19520.00
2018-09-12T12:30:34.963Z,18688.00
2018-09-12T12:31:34.938Z,18912.00
2018-09-12T12:32:34.915Z,19616.00
2018-09-12T12:33:34.895Z,20896.00
2018-09-12T12:34:34.866Z,21760.00
2018-09-12T12:35:34.937Z,17192.00
2018-09-12T12:36:34.821Z,11748.00
2018-09-12T12:37:34.793Z,8332.00
2018-09-12T12:38:34.773Z,6996.00
2018-09-12T12:39:45.621Z,6672.00
2018-09-12T12:51:36.336Z,25760.00
2018-09-12T12:52:36.311Z,27424.00
2018-09-12T12:53:36.084Z,29600.00
2018-09-12T12:54:36.059Z,32640.00
2018-09-12T12:55:36.035Z,36736.00
2018-09-12T12:56:36.009Z,42208.00
2018-09-12T12:57:36.187Z,40800.00
2018-09-12T14:06:51.119Z,17120.00
2018-09-12T14:07:50.834Z,18272.00
2018-09-12T14:08:50.820Z,19904.00
2018-09-12T14:09:50.787Z,21152.00
2018-09-12T14:10:50.758Z,22176.00
2018-09-12T14:11:50.729Z,23680.00
2018-09-12T14:12:50.706Z,25664.00
2018-09-12T14:13:50.683Z,28032.00
2018-09-12T14:14:50.654Z,31840.00
2018-09-12T14:15:50.630Z,33664.00
2018-09-12T14:16:50.602Z,32992.00
2018-09-12T14:17:50.578Z,31072.00
2018-09-12T14:18:50.553Z,27808.00
2018-09-12T14:19:50.526Z,28032.00
2018-09-12T14:20:50.501Z,27808.00
2018-09-12T14:21:50.481Z,24512.00
2018-09-12T14:22:50.751Z,21472.00
2018-09-12T14:23:50.426Z,19584.00
2018-09-12T14:24:50.406Z,19104.00
2018-09-12T14:25:50.377Z,18304.00
2018-09-12T14:26:50.351Z,16320.00
2018-09-12T14:27:50.333Z,15836.00
2018-09-12T14:28:50.310Z,16020.00
2018-09-12T14:29:50.276Z,16216.00
2018-09-12T14:30:50.254Z,16144.00
2018-09-12T14:31:50.235Z,15920.00
2018-09-12T14:32:50.208Z,15888.00
2018-09-12T14:33:50.188Z,16200.00
2018-09-12T14:34:50.152Z,16980.00
2018-09-12T14:35:50.129Z,17952.00
2018-09-12T14:36:50.102Z,18656.00
2018-09-12T14:37:50.076Z,19232.00
2018-09-12T14:38:50.082Z,19456.00
2018-09-12T14:39:50.027Z,19552.00
2018-09-12T14:40:50.001Z,19296.00
2018-09-12T14:41:49.993Z,19840.00
2018-09-12T14:42:49.952Z,21248.00
2018-09-12T15:04:54.657Z,14192.00
2018-09-12T15:05:54.401Z,13788.00
2018-09-12T15:06:54.385Z,13896.00
2018-09-12T15:07:54.349Z,13352.00
2018-09-12T15:08:54.323Z,13828.00
2018-09-12T15:09:54.296Z,13644.00
2018-09-12T15:10:54.274Z,13536.00
2018-09-12T15:11:54.245Z,13644.00
2018-09-12T15:12:54.221Z,14876.00
2018-09-12T15:13:54.196Z,16864.00
2018-09-12T15:14:54.183Z,18432.00
2018-09-12T15:15:54.146Z,17952.00
2018-09-12T15:16:54.136Z,16408.00
2018-09-12T15:17:54.092Z,15712.00
2018-09-12T15:18:54.069Z,14488.00
2018-09-12T15:19:54.045Z,14436.00
2018-09-12T15:20:54.018Z,15116.00
2018-09-12T15:21:53.993Z,15368.00
2018-09-12T15:22:54.473Z,14776.00
2018-09-12T15:23:53.944Z,13872.00
2018-09-12T15:24:54.125Z,13328.00
2018-09-12T15:25:53.895Z,13600.00
2018-09-12T15:26:53.894Z,14484.00
2018-09-12T15:27:53.843Z,16040.00
2018-09-12T15:28:53.826Z,16784.00
2018-09-12T15:29:53.794Z,15484.00
2018-09-12T15:44:56.972Z,10472.00
2018-09-12T15:45:56.742Z,9852.00
2018-09-12T15:46:56.715Z,9140.00
2018-09-12T15:47:56.690Z,8344.00
2018-09-12T15:48:56.666Z,7548.00
2018-09-12T15:49:56.640Z,7204.00
2018-09-12T15:50:56.657Z,7352.00
2018-09-12T15:51:56.791Z,7436.00
2018-09-12T15:52:56.564Z,7416.00
2018-09-12T15:53:56.537Z,7772.00
2018-09-12T15:54:56.521Z,7764.00
2018-09-12T15:55:56.487Z,7644.00
2018-09-12T15:56:56.462Z,7220.00
2018-09-12T15:57:56.538Z,6896.00
2018-09-12T15:58:56.413Z,6752.00
2018-09-12T15:59:56.391Z,6756.00
2018-09-12T16:00:56.364Z,6584.00
2018-09-12T16:01:56.335Z,6280.00
2018-09-12T16:02:56.310Z,6004.00
2018-09-12T16:03:56.416Z,5836.00
2018-09-12T16:04:56.261Z,5860.00
2018-09-12T16:05:56.233Z,6168.00
2018-09-12T16:06:56.216Z,6652.00
2018-09-12T16:07:56.186Z,6908.00
2018-09-12T16:08:56.161Z,6684.00
2018-09-12T16:09:56.135Z,6072.00
2018-09-12T16:10:56.112Z,5516.00
2018-09-12T16:11:56.088Z,5148.00
2018-09-12T16:12:56.059Z,4836.00
2018-09-12T16:13:56.032Z,4496.00
2018-09-12T16:14:56.007Z,4092.00
2018-09-12T16:15:55.981Z,3524.00
2018-09-12T16:16:56.007Z,2916.00
2018-09-12T16:17:55.931Z,2584.00
2018-09-12T16:18:55.905Z,2412.00
2018-09-12T16:19:55.880Z,2316.00
2018-09-12T16:20:55.917Z,2324.00
2018-09-12T16:21:55.832Z,2524.00
2018-09-12T16:22:55.823Z,2876.00
2018-09-12T16:24:38.141Z,3076.00
2018-09-12T16:25:37.903Z,2988.00
2018-09-12T16:26:37.878Z,2872.00
2018-09-12T16:27:37.854Z,2840.00
2018-09-12T16:28:37.827Z,2912.00
2018-09-12T16:29:37.803Z,3032.00
2018-09-12T16:30:37.775Z,3180.00
2018-09-12T16:31:37.750Z,3296.00
2018-09-12T16:32:37.799Z,3356.00
2018-09-12T16:33:37.698Z,3404.00
2018-09-12T16:34:37.676Z,3384.00
2018-09-12T16:35:37.647Z,3280.00
2018-09-12T16:36:37.621Z,3196.00
2018-09-12T16:37:37.596Z,3164.00
2018-09-12T16:38:37.570Z,3168.00
2018-09-12T16:39:37.544Z,3172.00
2018-09-12T16:40:37.519Z,3132.00
2018-09-12T16:41:37.493Z,3008.00
2018-09-12T16:42:37.467Z,2900.00
2018-09-12T16:43:37.442Z,2920.00
2018-09-12T16:44:37.416Z,2992.00
2018-09-12T16:45:37.388Z,3020.00
2018-09-12T16:46:37.364Z,2972.00
2018-09-12T16:47:37.354Z,2868.00
2018-09-12T16:48:37.516Z,2788.00
2018-09-12T16:49:37.289Z,2776.00
2018-09-12T16:50:37.276Z,2752.00
2018-09-12T16:51:37.391Z,2712.00
2018-09-12T16:52:37.209Z,2632.00
2018-09-12T16:53:37.183Z,2524.00
2018-09-12T16:54:37.162Z,2420.00
2018-09-12T16:55:37.137Z,2352.00
2018-09-12T16:56:37.134Z,2316.00
2018-09-12T16:57:37.081Z,2292.00
2018-09-12T16:58:37.055Z,2264.00
2018-09-12T16:59:37.030Z,2232.00
2018-09-12T17:00:37.004Z,2180.00
2018-09-12T17:01:36.977Z,2092.00
2018-09-12T17:02:36.984Z,1972.00
2018-09-12T17:03:36.927Z,1832.00
2018-09-12T17:04:36.903Z,1704.00
2018-09-12T17:05:36.875Z,1628.00
2018-09-12T17:06:36.849Z,1612.00
2018-09-12T17:07:36.823Z,1624.00
2018-09-12T17:08:36.796Z,1624.00
2018-09-12T17:09:36.770Z,1580.00
2018-09-12T17:10:36.746Z,1532.00
2018-09-12T17:11:36.722Z,1488.00
2018-09-12T17:12:36.896Z,1436.00
2018-09-12T17:13:36.667Z,1340.00
2018-09-12T17:14:36.642Z,1236.00
2018-09-12T17:15:36.617Z,1164.00
2018-09-12T17:16:36.793Z,1108.00
2018-09-12T17:17:36.565Z,1060.00
2018-09-12T17:18:36.541Z,1016.00
2018-09-12T17:19:36.512Z,968.00
2018-09-12T17:20:36.500Z,900.00
2018-09-12T17:21:36.481Z,836.00
2018-09-12T17:22:36.435Z,800.00
2018-09-12T17:23:36.408Z,784.00
2018-09-12T17:24:36.584Z,792.00
2018-09-12T17:25:36.356Z,800.00
2018-09-12T17:26:36.331Z,808.00
2018-09-12T17:27:36.305Z,808.00
2018-09-12T17:37:02.274Z,456.00
2018-09-12T17:38:02.049Z,412.00
2018-09-12T17:39:02.018Z,364.00
2018-09-12T17:40:01.991Z,324.00
2018-09-12T17:41:01.965Z,284.00
2018-09-12T17:42:01.936Z,252.00
2018-09-12T17:43:01.913Z,228.00
2018-09-12T17:44:01.885Z,208.00
2018-09-12T17:45:01.861Z,192.00
2018-09-12T17:46:01.833Z,176.00
2018-09-12T17:47:01.809Z,156.00
2018-09-12T17:48:01.780Z,140.00
2018-09-12T17:49:01.758Z,124.00
2018-09-12T17:50:01.727Z,108.00
2018-09-12T17:51:01.705Z,96.00
2018-09-12T17:52:01.679Z,84.00
2018-09-12T17:53:01.648Z,76.00
2018-09-12T17:54:01.622Z,64.00
2018-09-12T17:55:01.604Z,56.00
2018-09-12T17:56:01.573Z,48.00
2018-09-12T17:57:01.547Z,44.00
2018-09-12T17:58:01.519Z,36.00
2018-09-12T17:59:01.490Z,32.00
2018-09-12T18:00:01.464Z,28.00